createdAt,value
2022-09-28T00:00:41.826Z,8.08
2022-09-28T00:03:09.137Z,8.04
2022-09-28T00:05:35.700Z,8.16
2022-09-28T00:08:02.146Z,8.21
2022-09-28T00:10:28.502Z,8.19
2022-09-28T00:12:57.880Z,8.15
2022-09-28T00:15:24.645Z,8.16
2022-09-28T00:17:50.991Z,8.19
2022-09-28T00:20:18.038Z,8.25
2022-09-28T00:22:44.383Z,8.24
2022-09-28T00:25:10.753Z,8.24
2022-09-28T00:27:37.074Z,8.14
2022-09-28T00:30:04.317Z,8.22
2022-09-28T00:32:30.670Z,8.16
2022-09-28T00:34:57.046Z,8.20
2022-09-28T00:37:23.469Z,8.16
2022-09-28T00:39:50.190Z,8.16
2022-09-28T00:42:20.133Z,8.15
2022-09-28T00:44:47.823Z,8.17
2022-09-28T00:47:38.366Z,8.20
2022-09-28T00:50:22.602Z,8.12
2022-09-28T00:53:00.427Z,8.12
2022-09-28T00:55:34.461Z,8.10
2022-09-28T00:58:05.537Z,8.16
2022-09-28T01:00:32.173Z,8.18
2022-09-28T01:02:59.680Z,8.20
2022-09-28T01:05:27.455Z,8.22
2022-09-28T01:07:56.232Z,8.15
2022-09-28T01:10:22.751Z,8.06
2022-09-28T01:12:49.116Z,8.07
2022-09-28T01:15:15.686Z,8.06
2022-09-28T01:18:27.802Z,8.05
2022-09-28T01:21:22.199Z,8.02
2022-09-28T01:24:13.506Z,8.07
2022-09-28T01:26:48.471Z,8.05
2022-09-28T01:29:44.951Z,8.02
2022-09-28T01:32:31.494Z,7.99
2022-09-28T01:35:00.627Z,8.01
2022-09-28T01:37:37.765Z,8.03
2022-09-28T01:40:06.898Z,8.04
2022-09-28T01:42:35.923Z,8.02
2022-09-28T01:45:09.363Z,7.99
2022-09-28T01:47:39.823Z,7.96
2022-09-28T01:50:14.409Z,7.93
2022-09-28T01:52:56.742Z,7.86
2022-09-28T01:55:35.799Z,7.84
2022-09-28T01:58:10.700Z,7.80
2022-09-28T02:00:41.439Z,7.74
2022-09-28T02:03:12.351Z,7.72
2022-09-28T02:05:42.274Z,7.73
2022-09-28T02:08:28.287Z,7.74
2022-09-28T02:11:01.353Z,7.73
2022-09-28T02:13:33.211Z,7.77
2022-09-28T02:16:16.911Z,7.74
2022-09-28T02:18:44.874Z,7.76
2022-09-28T02:21:16.122Z,7.87
2022-09-28T02:23:53.809Z,7.78
2022-09-28T02:26:24.675Z,7.78
2022-09-28T02:28:51.057Z,7.81
2022-09-28T02:31:17.652Z,7.77
2022-09-28T02:33:44.875Z,7.74
2022-09-28T02:36:11.486Z,7.72
2022-09-28T02:38:38.246Z,7.71
2022-09-28T02:41:31.678Z,7.70
2022-09-28T02:44:16.448Z,7.71
2022-09-28T02:46:49.134Z,7.73
2022-09-28T02:49:29.318Z,7.72
2022-09-28T02:52:17.537Z,7.68
2022-09-28T02:55:02.732Z,7.71
2022-09-28T02:57:57.506Z,7.75
2022-09-28T03:00:24.349Z,7.76
2022-09-28T03:02:57.269Z,7.80
2022-09-28T03:05:32.684Z,7.78
2022-09-28T03:08:03.585Z,7.82
2022-09-28T03:10:44.640Z,7.80
2022-09-28T03:13:13.663Z,7.87
2022-09-28T03:15:45.256Z,7.86
2022-09-28T03:18:14.355Z,7.80
2022-09-28T03:20:40.722Z,7.76
2022-09-28T03:23:23.798Z,7.74
2022-09-28T03:25:51.399Z,7.74
2022-09-28T03:28:17.831Z,7.81
2022-09-28T03:30:44.182Z,7.77
2022-09-28T03:33:10.526Z,7.76
2022-09-28T03:35:36.880Z,7.75
2022-09-28T03:38:03.351Z,7.74
2022-09-28T03:40:29.797Z,7.73
2022-09-28T03:42:56.169Z,7.71
2022-09-28T03:45:22.548Z,7.72
2022-09-28T03:47:48.974Z,7.76
2022-09-28T03:50:15.704Z,7.76
2022-09-28T03:52:42.191Z,7.77
2022-09-28T03:55:09.073Z,7.85
2022-09-28T03:57:35.426Z,7.84
2022-09-28T04:00:04.105Z,7.83
2022-09-28T04:02:30.617Z,7.81
2022-09-28T04:04:56.997Z,7.91
2022-09-28T04:07:24.086Z,7.86
2022-09-28T04:09:52.383Z,7.91
2022-09-28T04:12:18.759Z,7.85
2022-09-28T04:14:45.081Z,7.87
2022-09-28T04:17:11.435Z,7.93
2022-09-28T04:19:37.806Z,7.88
2022-09-28T04:22:04.826Z,7.84
2022-09-28T04:24:31.559Z,7.85
2022-09-28T04:27:17.866Z,7.86
2022-09-28T04:29:44.240Z,7.86
2022-09-28T04:32:11.372Z,7.85
2022-09-28T04:34:40.761Z,7.83
2022-09-28T04:37:09.611Z,7.76
2022-09-28T04:39:35.935Z,7.83
2022-09-28T04:42:02.284Z,7.83
2022-09-28T04:44:28.637Z,7.88
2022-09-28T04:46:55.735Z,7.84
2022-09-28T04:49:22.520Z,7.82
2022-09-28T04:51:48.862Z,7.83
2022-09-28T04:54:15.269Z,7.74
2022-09-28T04:56:41.778Z,7.74
2022-09-28T04:59:08.140Z,7.81
2022-09-28T05:01:34.602Z,7.75
2022-09-28T05:04:01.325Z,7.71
2022-09-28T05:06:30.407Z,7.71
2022-09-28T05:08:57.430Z,7.79
2022-09-28T05:11:24.034Z,7.81
2022-09-28T05:13:50.562Z,7.76
2022-09-28T05:16:17.557Z,7.78
2022-09-28T05:18:43.965Z,7.75
2022-09-28T05:21:15.648Z,7.72
2022-09-28T05:23:46.743Z,7.73
2022-09-28T05:26:13.710Z,7.75
2022-09-28T05:28:40.086Z,7.76
2022-09-28T05:31:06.434Z,7.74
2022-09-28T05:33:33.392Z,7.73
2022-09-28T05:36:01.623Z,7.69
2022-09-28T05:38:28.907Z,7.75
2022-09-28T05:40:56.233Z,7.72
2022-09-28T05:43:22.715Z,7.72
2022-09-28T05:45:53.023Z,7.67
2022-09-28T05:48:21.911Z,7.68
2022-09-28T05:50:52.474Z,7.69
2022-09-28T05:53:19.489Z,7.68
2022-09-28T05:55:46.808Z,7.69
2022-09-28T05:58:13.286Z,7.72
2022-09-28T06:00:40.078Z,7.76
2022-09-28T06:03:11.291Z,7.82
2022-09-28T06:05:41.693Z,7.87
2022-09-28T06:08:10.570Z,7.81
2022-09-28T06:10:37.500Z,7.74
2022-09-28T06:13:04.308Z,7.71
2022-09-28T06:15:33.607Z,7.77
2022-09-28T06:18:05.581Z,7.81
2022-09-28T06:20:35.515Z,7.78
2022-09-28T06:23:02.171Z,7.88
2022-09-28T06:25:28.642Z,7.94
2022-09-28T06:27:58.931Z,7.91
2022-09-28T06:30:27.119Z,7.91
2022-09-28T06:32:58.431Z,7.98
2022-09-28T06:35:27.341Z,7.97
2022-09-28T06:37:53.920Z,7.99
2022-09-28T06:40:21.368Z,8.03
2022-09-28T06:42:56.936Z,8.06
2022-09-28T06:45:25.461Z,8.16
2022-09-28T06:47:57.392Z,8.10
2022-09-28T06:50:25.688Z,8.13
2022-09-28T06:52:53.695Z,8.20
2022-09-28T06:55:21.420Z,8.17
2022-09-28T06:57:48.226Z,8.27
2022-09-28T07:00:15.230Z,8.18
2022-09-28T07:02:41.709Z,8.34
2022-09-28T07:05:12.528Z,8.35
2022-09-28T07:07:40.282Z,8.39
2022-09-28T07:10:07.027Z,8.46
2022-09-28T07:12:35.715Z,8.43
2022-09-28T07:15:02.199Z,8.52
2022-09-28T07:17:28.677Z,8.42
2022-09-28T07:20:00.151Z,8.36
2022-09-28T07:22:40.708Z,8.46
2022-09-28T07:25:09.574Z,8.44
2022-09-28T07:27:37.181Z,8.46
2022-09-28T07:30:05.566Z,8.56
2022-09-28T07:32:34.906Z,8.70
2022-09-28T07:35:01.510Z,8.76
2022-09-28T07:37:27.840Z,8.73
2022-09-28T07:40:12.502Z,8.82
2022-09-28T07:42:38.850Z,8.73
2022-09-28T07:45:06.923Z,8.69
2022-09-28T07:47:35.258Z,8.84
2022-09-28T07:50:01.849Z,8.76
2022-09-28T07:52:28.742Z,8.72
2022-09-28T07:54:55.472Z,8.74
2022-09-28T07:57:22.621Z,8.69
2022-09-28T07:59:50.122Z,8.76
2022-09-28T08:02:20.349Z,8.71
2022-09-28T08:04:47.894Z,8.66
2022-09-28T08:07:17.126Z,8.70
2022-09-28T08:09:46.184Z,8.77
2022-09-28T08:12:14.100Z,8.78
2022-09-28T08:14:41.290Z,8.87
2022-09-28T08:17:07.725Z,8.91
2022-09-28T08:19:52.629Z,9.05
2022-09-28T08:22:19.872Z,9.08
2022-09-28T08:24:47.191Z,9.03
2022-09-28T08:27:16.456Z,8.91
2022-09-28T08:29:43.359Z,8.94
2022-09-28T08:32:10.636Z,8.94
2022-09-28T08:34:41.205Z,8.97
2022-09-28T08:37:09.361Z,8.94
2022-09-28T08:39:36.667Z,9.00
2022-09-28T08:42:08.752Z,8.95
2022-09-28T08:48:13.699Z,9.12
2022-09-28T08:50:52.807Z,9.07
2022-09-28T08:54:06.982Z,9.14
2022-09-28T08:56:41.076Z,9.28
2022-09-28T08:59:41.792Z,9.49
2022-09-28T09:02:16.610Z,9.42
2022-09-28T09:04:43.351Z,9.37
2022-09-28T09:07:12.358Z,9.37
2022-09-28T09:09:56.226Z,9.43
2022-09-28T09:12:36.685Z,9.62
2022-09-28T09:15:22.296Z,9.71
2022-09-28T09:17:57.519Z,9.83
2022-09-28T09:20:23.893Z,10.04
2022-09-28T09:23:01.140Z,10.21
2022-09-28T09:25:47.105Z,10.18
2022-09-28T09:28:39.342Z,10.18
2022-09-28T09:31:30.602Z,10.05
2022-09-28T09:34:30.619Z,10.12
2022-09-28T09:37:41.780Z,10.19
2022-09-28T09:40:29.001Z,10.24
2022-09-28T09:42:55.401Z,10.44
2022-09-28T09:45:34.192Z,10.58
2022-09-28T09:48:03.567Z,10.56
2022-09-28T09:50:32.053Z,10.60
2022-09-28T09:53:26.045Z,10.64
2022-09-28T09:55:59.996Z,10.61
2022-09-28T09:58:35.344Z,10.71
2022-09-28T10:01:11.711Z,10.71
2022-09-28T10:03:42.913Z,10.78
2022-09-28T10:06:19.652Z,10.64
2022-09-28T10:08:50.309Z,10.48
2022-09-28T10:11:19.321Z,10.49
2022-09-28T10:13:48.389Z,10.43
2022-09-28T10:16:18.155Z,10.36
2022-09-28T10:18:45.185Z,10.41
2022-09-28T10:21:15.668Z,10.44
2022-09-28T10:23:42.724Z,10.79
2022-09-28T10:26:15.665Z,10.97
2022-09-28T10:28:54.129Z,11.14
2022-09-28T10:31:40.981Z,11.17
2022-09-28T10:34:10.903Z,11.34
2022-09-28T10:37:00.892Z,11.58
2022-09-28T10:39:37.567Z,11.48
2022-09-28T10:42:10.132Z,11.51
2022-09-28T10:44:53.848Z,11.68
2022-09-28T10:47:24.303Z,11.86
2022-09-28T10:49:53.445Z,11.80
2022-09-28T10:52:38.601Z,11.80
2022-09-28T10:55:32.204Z,11.91
2022-09-28T10:58:24.085Z,12.05
2022-09-28T11:00:52.615Z,12.03
2022-09-28T11:03:28.198Z,11.94
2022-09-28T11:06:02.115Z,11.73
2022-09-28T11:08:41.975Z,11.55
2022-09-28T11:11:14.583Z,11.47
2022-09-28T11:13:47.184Z,11.29
2022-09-28T11:16:23.983Z,11.20
2022-09-28T11:18:50.678Z,11.37
2022-09-28T11:21:23.123Z,11.59
2022-09-28T11:24:01.572Z,11.52
2022-09-28T11:26:36.507Z,11.51
2022-09-28T11:29:04.023Z,11.37
2022-09-28T11:31:31.552Z,11.37
2022-09-28T11:34:16.800Z,11.26
2022-09-28T11:36:58.420Z,11.23
2022-09-28T11:39:46.243Z,11.20
2022-09-28T11:42:31.792Z,11.36
2022-09-28T11:45:16.247Z,11.54
2022-09-28T11:48:11.960Z,11.72
2022-09-28T11:50:56.820Z,12.04
2022-09-28T11:53:31.517Z,12.48
2022-09-28T11:56:31.337Z,12.46
2022-09-28T11:59:04.696Z,12.38
2022-09-28T12:01:41.046Z,12.15
2022-09-28T12:04:16.766Z,12.15
2022-09-28T12:07:21.193Z,12.06
2022-09-28T12:09:58.461Z,11.95
2022-09-28T12:12:28.956Z,11.85
2022-09-28T12:14:59.738Z,12.03
2022-09-28T12:17:42.760Z,12.18
2022-09-28T12:20:22.630Z,12.41
2022-09-28T12:23:01.324Z,12.63
2022-09-28T12:25:33.471Z,12.92
2022-09-28T12:28:05.581Z,12.75
2022-09-28T12:30:40.647Z,12.72
2022-09-28T12:33:15.198Z,12.62
2022-09-28T12:36:08.021Z,12.41
2022-09-28T12:38:34.363Z,12.26
2022-09-28T12:41:31.230Z,12.08
2022-09-28T12:44:04.692Z,11.87
2022-09-28T12:46:37.275Z,11.79
2022-09-28T12:50:01.808Z,11.64
2022-09-28T12:52:13.323Z,11.50
2022-09-28T12:55:02.133Z,11.37
2022-09-28T12:57:39.006Z,11.38
2022-09-28T13:00:08.843Z,11.44
2022-09-28T13:03:00.987Z,11.50
2022-09-28T13:05:58.605Z,11.59
2022-09-28T13:09:13.215Z,11.72
2022-09-28T13:12:12.048Z,11.80
2022-09-28T13:15:01.300Z,11.92
2022-09-28T13:17:46.778Z,12.01
2022-09-28T13:20:35.710Z,12.13
2022-09-28T13:23:15.020Z,12.21
2022-09-28T13:25:50.297Z,12.30
2022-09-28T13:28:24.979Z,12.34
2022-09-28T13:30:56.745Z,12.42
2022-09-28T13:33:38.225Z,12.46
2022-09-28T13:36:27.349Z,12.42
2022-09-28T13:38:59.375Z,12.51
2022-09-28T13:41:31.577Z,12.55
2022-09-28T13:44:13.186Z,12.63
2022-09-28T13:46:58.686Z,12.75
2022-09-28T13:49:37.939Z,12.77
2022-09-28T13:52:42.267Z,12.69
2022-09-28T13:55:32.797Z,12.50
2022-09-28T13:58:05.640Z,12.38
2022-09-28T14:00:45.621Z,12.13
2022-09-28T14:03:42.865Z,12.10
2022-09-28T14:06:31.904Z,12.18
2022-09-28T14:09:09.856Z,12.16
2022-09-28T14:11:36.684Z,12.19
2022-09-28T14:14:13.710Z,12.18
2022-09-28T14:16:44.268Z,12.30
2022-09-28T14:19:24.534Z,12.29
2022-09-28T14:22:08.110Z,12.33
2022-09-28T14:24:56.792Z,12.36
2022-09-28T14:27:44.375Z,12.38
2022-09-28T14:30:13.656Z,12.60
2022-09-28T14:32:58.391Z,12.69
2022-09-28T14:35:33.568Z,12.67
2022-09-28T14:38:46.180Z,12.67
2022-09-28T14:41:34.370Z,12.71
2022-09-28T14:44:16.071Z,12.69
2022-09-28T14:46:47.051Z,12.62
2022-09-28T14:49:19.681Z,12.54
2022-09-28T14:52:02.058Z,12.59
2022-09-28T14:54:39.092Z,12.55
2022-09-28T14:57:16.052Z,12.60
2022-09-28T14:59:46.065Z,12.57
2022-09-28T15:02:14.934Z,12.56
2022-09-28T15:04:47.086Z,12.56
2022-09-28T15:07:26.843Z,12.53
2022-09-28T15:09:55.934Z,12.63
2022-09-28T15:12:31.620Z,12.55
2022-09-28T15:15:08.330Z,12.60
2022-09-28T15:17:39.822Z,12.64
2022-09-28T15:20:25.438Z,12.56
2022-09-28T15:22:57.185Z,12.54
2022-09-28T15:25:26.327Z,12.48
2022-09-28T15:28:06.421Z,12.45
2022-09-28T15:30:34.987Z,12.53
2022-09-28T15:33:22.912Z,12.54
2022-09-28T15:36:01.948Z,12.52
2022-09-28T15:38:29.128Z,12.54
2022-09-28T15:40:56.097Z,12.51
2022-09-28T15:43:27.058Z,12.46
2022-09-28T15:46:02.593Z,12.43
2022-09-28T15:48:51.970Z,12.44
2022-09-28T15:51:21.238Z,12.51
2022-09-28T15:53:58.310Z,12.53
2022-09-28T15:56:26.040Z,12.47
2022-09-28T15:59:25.399Z,12.36
2022-09-28T16:02:10.235Z,12.32
2022-09-28T16:04:54.053Z,12.22
2022-09-28T16:07:35.573Z,12.12
2022-09-28T16:10:13.928Z,11.99
2022-09-28T16:12:42.121Z,11.95
2022-09-28T16:15:34.411Z,11.85
2022-09-28T16:18:06.763Z,11.72
2022-09-28T16:20:38.392Z,11.69
2022-09-28T16:23:33.253Z,11.61
2022-09-28T16:26:09.487Z,11.44
2022-09-28T16:28:38.892Z,11.34
2022-09-28T16:31:14.402Z,11.25
2022-09-28T16:33:46.644Z,11.20
2022-09-28T16:36:16.849Z,11.07
2022-09-28T16:38:47.520Z,10.87
2022-09-28T16:41:21.038Z,10.80
2022-09-28T16:43:56.078Z,10.77
2022-09-28T16:46:29.178Z,10.64
2022-09-28T16:48:55.725Z,10.67
2022-09-28T16:51:23.171Z,10.59
2022-09-28T16:54:08.594Z,10.54
2022-09-28T16:56:36.632Z,10.50
2022-09-28T16:59:03.843Z,10.53
2022-09-28T17:01:31.461Z,10.18
2022-09-28T17:03:58.070Z,10.08
2022-09-28T17:06:25.572Z,9.92
2022-09-28T17:08:52.525Z,9.88
2022-09-28T17:11:24.006Z,9.78
2022-09-28T17:13:51.646Z,9.63
2022-09-28T17:19:19.171Z,9.48
2022-09-28T17:21:46.436Z,9.41
2022-09-28T17:24:13.140Z,9.42
2022-09-28T17:26:43.951Z,9.34
2022-09-28T17:29:14.911Z,9.31
2022-09-28T17:31:43.239Z,9.39
2022-09-28T17:34:10.862Z,9.32
2022-09-28T17:36:37.736Z,9.33
2022-09-28T17:39:05.063Z,9.26
2022-09-28T17:41:32.164Z,9.25
2022-09-28T17:44:02.942Z,9.16
2022-09-28T17:46:29.641Z,9.19
2022-09-28T17:48:59.384Z,9.18
2022-09-28T17:51:31.027Z,9.13
2022-09-28T17:53:57.989Z,9.09
2022-09-28T17:56:29.680Z,9.13
2022-09-28T17:59:00.795Z,9.18
2022-09-28T18:01:33.654Z,9.14
2022-09-28T18:04:02.140Z,9.09
2022-09-28T18:06:28.931Z,9.10
2022-09-28T18:08:55.538Z,9.10
2022-09-28T18:11:22.267Z,9.08
2022-09-28T18:13:48.742Z,9.09
2022-09-28T18:16:15.480Z,9.10
2022-09-28T18:18:42.194Z,9.11
2022-09-28T18:21:09.110Z,9.08
2022-09-28T18:23:37.474Z,9.11
2022-09-28T18:26:04.905Z,9.06
2022-09-28T18:28:31.413Z,9.05
2022-09-28T18:30:58.085Z,9.04
2022-09-28T18:33:24.506Z,9.07
2022-09-28T18:35:54.890Z,9.10
2022-09-28T18:38:21.510Z,9.10
2022-09-28T18:40:48.369Z,9.34
2022-09-28T18:43:15.801Z,9.10
2022-09-28T18:45:42.225Z,9.01
2022-09-28T18:48:08.792Z,9.01
2022-09-28T18:50:35.294Z,9.00
2022-09-28T18:53:11.895Z,9.01
2022-09-28T18:55:42.749Z,8.97
2022-09-28T18:58:10.926Z,8.99
2022-09-28T19:00:39.309Z,8.95
2022-09-28T19:03:07.144Z,8.92
2022-09-28T19:05:35.068Z,8.91
2022-09-28T19:08:02.286Z,8.91
2022-09-28T19:10:28.807Z,8.91
2022-09-28T19:12:55.314Z,8.88
2022-09-28T19:15:22.681Z,8.85
2022-09-28T19:17:52.405Z,8.80
2022-09-28T19:20:18.835Z,8.77
2022-09-28T19:22:49.367Z,8.73
2022-09-28T19:25:15.898Z,8.72
2022-09-28T19:27:42.391Z,8.74
2022-09-28T19:30:09.385Z,8.74
2022-09-28T19:32:35.965Z,8.70
2022-09-28T19:35:03.845Z,8.64
2022-09-28T19:37:31.553Z,8.66
2022-09-28T19:39:59.184Z,8.67
2022-09-28T19:42:26.156Z,8.60
2022-09-28T19:44:52.685Z,8.58
2022-09-28T19:47:21.484Z,8.61
2022-09-28T19:49:49.010Z,8.59
2022-09-28T19:52:16.552Z,8.61
2022-09-28T19:54:56.322Z,8.65
2022-09-28T19:57:24.772Z,8.62
2022-09-28T19:59:53.748Z,8.62
2022-09-28T20:02:21.757Z,8.64
2022-09-28T20:04:48.739Z,8.69
2022-09-28T20:07:15.461Z,8.59
2022-09-28T20:09:42.198Z,8.63
2022-09-28T20:12:08.863Z,8.59
2022-09-28T20:14:38.256Z,8.66
2022-09-28T20:17:06.922Z,8.56
2022-09-28T20:19:33.485Z,8.53
2022-09-28T20:22:02.849Z,8.49
2022-09-28T20:24:29.886Z,8.49
2022-09-28T20:26:56.510Z,8.47
2022-09-28T20:29:24.192Z,8.48
2022-09-28T20:31:51.690Z,8.46
2022-09-28T20:34:18.197Z,8.41
2022-09-28T20:36:44.972Z,8.40
2022-09-28T20:39:12.036Z,8.40
2022-09-28T20:41:39.743Z,8.48
2022-09-28T20:44:06.906Z,8.49
2022-09-28T20:46:35.527Z,8.55
2022-09-28T20:49:02.564Z,8.57
2022-09-28T20:51:29.213Z,8.62
2022-09-28T20:53:57.228Z,8.59
2022-09-28T20:56:27.683Z,8.48
2022-09-28T20:58:55.351Z,8.45
2022-09-28T21:01:26.725Z,8.43
2022-09-28T21:03:56.501Z,8.51
2022-09-28T21:06:26.184Z,8.51
2022-09-28T21:08:52.839Z,8.46
2022-09-28T21:11:22.151Z,8.43
2022-09-28T21:13:52.444Z,8.52
2022-09-28T21:16:19.122Z,8.51
2022-09-28T21:18:46.058Z,8.50
2022-09-28T21:21:14.617Z,8.43
2022-09-28T21:23:41.237Z,8.40
2022-09-28T21:26:13.045Z,8.38
2022-09-28T21:28:40.264Z,8.36
2022-09-28T21:31:09.998Z,8.32
2022-09-28T21:33:37.188Z,8.30
2022-09-28T21:36:06.301Z,8.29
2022-09-28T21:38:32.893Z,8.26
2022-09-28T21:40:59.989Z,8.22
2022-09-28T21:43:28.314Z,8.17
2022-09-28T21:45:56.294Z,8.17
2022-09-28T21:48:24.405Z,8.20
2022-09-28T21:50:56.051Z,8.20
2022-09-28T21:53:24.276Z,8.19
2022-09-28T21:55:53.357Z,8.22
2022-09-28T21:58:23.086Z,8.22
2022-09-28T22:00:55.632Z,8.27
2022-09-28T22:03:24.592Z,8.29
2022-09-28T22:05:52.241Z,8.28
2022-09-28T22:08:19.735Z,8.30
2022-09-28T22:10:46.424Z,8.25
2022-09-28T22:13:12.803Z,8.23
2022-09-28T22:15:39.469Z,8.21
2022-09-28T22:18:06.297Z,8.21
2022-09-28T22:20:32.703Z,8.26
2022-09-28T22:22:59.405Z,8.24
2022-09-28T22:25:25.775Z,8.24
2022-09-28T22:27:52.195Z,8.22
2022-09-28T22:30:18.704Z,8.20
2022-09-28T22:32:45.069Z,8.21
2022-09-28T22:35:11.600Z,8.17
2022-09-28T22:37:38.211Z,8.12
2022-09-28T22:40:05.227Z,8.10
2022-09-28T22:42:32.550Z,8.10
2022-09-28T22:44:58.934Z,8.04
2022-09-28T22:47:25.495Z,8.04
2022-09-28T22:49:52.003Z,7.94
2022-09-28T22:52:18.587Z,7.95
2022-09-28T22:54:45.627Z,7.90
2022-09-28T22:57:12.122Z,7.88
2022-09-28T22:59:38.563Z,7.82
2022-09-28T23:02:05.231Z,7.78
2022-09-28T23:04:31.895Z,7.72
2022-09-28T23:06:58.335Z,7.70
2022-09-28T23:09:24.901Z,7.60
2022-09-28T23:11:51.261Z,7.47
2022-09-28T23:14:17.677Z,7.44
2022-09-28T23:16:44.067Z,7.45
2022-09-28T23:19:10.512Z,7.43
2022-09-28T23:21:37.146Z,7.39
2022-09-28T23:24:03.956Z,7.31
2022-09-28T23:26:32.646Z,7.29
2022-09-28T23:28:59.767Z,7.27
2022-09-28T23:31:29.111Z,7.22
2022-09-28T23:33:59.218Z,7.15
2022-09-28T23:36:26.192Z,7.11
2022-09-28T23:38:52.925Z,7.06
2022-09-28T23:41:19.527Z,7.00
2022-09-28T23:43:45.977Z,6.93
2022-09-28T23:46:12.487Z,6.88
2022-09-28T23:48:39.170Z,6.80
2022-09-28T23:51:05.906Z,6.72
2022-09-28T23:53:32.282Z,6.66
2022-09-28T23:56:00.168Z,6.65
2022-09-28T23:58:27.483Z,6.62
